Terminal Aerodrome Forecast
Issued by NWS

Home | Current Version | Previous Version | Graphics & Text | Print | Product List | Glossary On
Versions: 1 2 3 4 5 6 7 8 9 10 11 12 13
086
FTUS43 KFGF 210540
TAFBJI
TAF
KBJI 210540Z 2106/2206 16005KT P6SM VCTS BKN030CB OVC040
      TEMPO 2106/2108 VRB45KT 2SM TSRA BKN020CB OVC030
     FM210900 VRB06KT P6SM SCT020 BKN040
     FM211300 29004KT P6SM SCT200=

USA.gov is the U.S. government's official web portal to all federal, state and local government web resources and services.